Time;durP1;ratioP1;P1;durP2;ratioP2;P2;SDS_P1;SDS_P2;PMS_P1;PMS_P2;Temp;Humidity;BMP_temperature;BMP_pressure;BME280_temperature;BME280_humidity;BME280_pressure;Samples;Min_cycle;Max_cycle;Signal;HPM_P1;HPM_P2
2022/03/08 00:00:17;;;;;;;;;40.00;38.25;;;;;4.07;47.98;101208.06;5153693;27;45091;-85
2022/03/08 00:02:43;;;;;;;;;42.75;39.00;;;;;4.02;48.38;101201.63;5139873;27;45141;-85
2022/03/08 00:05:08;;;;;;;;;39.25;37.25;;;;;4.08;48.41;101210.75;5143022;27;46330;-85
2022/03/08 00:07:34;;;;;;;;;39.25;37.25;;;;;4.13;48.28;101216.25;5143593;27;44988;-85
2022/03/08 00:10:05;;;;;;;;;40.75;36.50;;;;;4.11;48.46;101217.88;5145703;27;45198;-85
2022/03/08 00:12:30;;;;;;;;;39.00;35.25;;;;;4.08;48.40;101218.56;5150145;27;44867;-85
2022/03/08 00:14:55;;;;;;;;;43.00;38.75;;;;;3.99;48.60;101204.03;5144448;27;45308;-85
2022/03/08 00:17:21;;;;;;;;;44.67;36.33;;;;;3.89;48.44;101173.88;5148642;27;47659;-85
2022/03/08 00:19:46;;;;;;;;;38.00;36.67;;;;;4.06;48.58;101214.97;5148046;27;44995;-85
2022/03/08 00:22:11;;;;;;;;;34.00;30.33;;;;;4.07;48.85;101208.06;5152056;27;45133;-85
2022/03/08 00:24:37;;;;;;;;;39.75;36.25;;;;;3.96;48.75;101186.53;5151602;27;45433;-85
2022/03/08 00:27:02;;;;;;;;;40.25;36.25;;;;;3.89;48.84;101179.09;5147221;27;45260;-85
2022/03/08 00:29:28;;;;;;;;;36.50;33.25;;;;;3.95;48.78;101199.44;5133947;27;45162;-85
2022/03/08 00:31:53;;;;;;;;;40.33;38.33;;;;;3.90;48.88;101186.13;5155696;27;45164;-85
2022/03/08 00:34:19;;;;;;;;;43.00;39.67;;;;;3.82;48.45;101182.97;5140971;27;45125;-85
2022/03/08 00:36:45;;;;;;;;;37.50;33.50;;;;;3.97;49.00;101211.72;5134490;27;45254;-85
2022/03/08 00:39:10;;;;;;;;;40.00;36.75;;;;;3.88;48.62;101193.78;5151028;27;45167;-85
2022/03/08 00:41:37;;;;;;;;;34.67;32.67;;;;;3.77;48.74;101173.06;5134322;27;45113;-85
2022/03/08 00:44:03;;;;;;;;;38.00;36.00;;;;;3.45;48.84;101134.47;5146597;27;45271;-85
2022/03/08 00:46:29;;;;;;;;;37.75;34.00;;;;;3.73;49.03;101181.44;5143162;27;45122;-84
2022/03/08 00:48:55;;;;;;;;;41.00;37.00;;;;;3.77;48.93;101194.75;5126652;27;45092;-85
2022/03/08 00:51:21;;;;;;;;;39.50;33.50;;;;;3.79;49.11;101198.41;5140732;27;45103;-85
2022/03/08 00:53:48;;;;;;;;;42.25;37.75;;;;;3.72;49.23;101188.34;5151878;27;45173;-84
2022/03/08 00:56:14;;;;;;;;;47.00;34.50;;;;;3.70;49.28;101187.34;5135806;27;45145;-85
2022/03/08 00:58:41;;;;;;;;;37.75;33.75;;;;;3.73;49.45;101202.25;5152852;27;46058;-85
2022/03/08 01:01:07;;;;;;;;;40.25;35.00;;;;;3.71;49.22;101203.84;5137909;27;45118;-85
2022/03/08 01:03:32;;;;;;;;;37.75;35.00;;;;;3.75;49.47;101208.47;5136494;27;47602;-85
2022/03/08 01:05:57;;;;;;;;;38.00;31.75;;;;;3.52;49.49;101171.38;5143020;27;45238;-85
2022/03/08 01:08:23;;;;;;;;;37.00;33.25;;;;;3.73;49.41;101213.53;5152899;27;45069;-85
2022/03/08 01:10:48;;;;;;;;;37.33;34.33;;;;;3.56;49.39;101181.19;5141184;27;45042;-85
2022/03/08 01:13:13;;;;;;;;;41.50;35.00;;;;;3.53;49.42;101178.38;5145773;27;45417;-85
2022/03/08 01:15:39;;;;;;;;;38.67;34.33;;;;;3.64;49.47;101202.50;5125784;27;45186;-85
2022/03/08 01:18:04;;;;;;;;;36.00;31.50;;;;;3.54;49.63;101180.16;5140574;27;45070;-85
2022/03/08 01:20:30;;;;;;;;;36.33;33.67;;;;;3.63;49.69;101198.09;5144907;27;44925;-84
2022/03/08 01:22:56;;;;;;;;;43.50;38.75;;;;;3.50;49.50;101175.59;5143070;27;45760;-85
2022/03/08 01:25:22;;;;;;;;;36.75;35.25;;;;;3.61;49.74;101194.50;5143079;27;45113;-85
2022/03/08 01:27:49;;;;;;;;;41.00;38.00;;;;;3.37;49.58;101157.31;5149820;27;45055;-85
2022/03/08 01:30:17;;;;;;;;;42.25;36.25;;;;;3.56;49.70;101188.09;5116643;27;45528;-85
2022/03/08 01:32:43;;;;;;;;;36.00;32.00;;;;;3.30;49.78;101148.22;5149383;27;45773;-85
2022/03/08 01:35:09;;;;;;;;;37.25;32.50;;;;;3.55;49.81;101196.69;5142856;27;44900;-85
2022/03/08 01:37:35;;;;;;;;;38.25;37.25;;;;;3.50;50.02;101188.56;5141692;27;45101;-85
2022/03/08 01:40:01;;;;;;;;;37.00;34.00;;;;;3.34;49.93;101160.59;5144160;27;45368;-84
2022/03/08 01:42:26;;;;;;;;;35.00;32.00;;;;;3.49;49.85;101194.53;5139274;27;45702;-85
2022/03/08 01:44:52;;;;;;;;;35.50;34.75;;;;;3.48;50.05;101195.34;5149690;27;45249;-85
2022/03/08 01:47:23;;;;;;;;;33.50;32.00;;;;;3.12;50.31;101133.94;5141923;27;44975;-85
2022/03/08 01:49:50;;;;;;;;;40.50;35.50;;;;;3.44;50.50;101195.03;5150011;27;45142;-85
2022/03/08 01:52:18;;;;;;;;;41.75;36.00;;;;;3.40;50.42;101191.31;5146765;27;46473;-85
2022/03/08 01:54:44;;;;;;;;;36.50;33.25;;;;;3.36;50.12;101190.19;5138253;27;45429;-85
2022/03/08 01:57:12;;;;;;;;;40.25;36.75;;;;;3.38;50.38;101187.69;5151080;27;45007;-84
2022/03/08 01:59:37;;;;;;;;;37.75;32.00;;;;;3.38;50.55;101184.22;5141798;27;44990;-85
2022/03/08 02:02:04;;;;;;;;;44.00;34.50;;;;;3.07;50.81;101148.28;5153488;27;46295;-85
2022/03/08 02:04:29;;;;;;;;;40.50;33.50;;;;;3.08;50.61;101140.59;5136681;27;45114;-85
2022/03/08 02:06:55;;;;;;;;;31.67;31.67;;;;;2.95;50.92;101124.03;5153850;27;45073;-85
2022/03/08 02:09:20;;;;;;;;;34.25;30.25;;;;;3.27;51.15;101175.66;5125568;27;44908;-85
2022/03/08 02:11:46;;;;;;;;;39.25;29.50;;;;;3.12;51.06;101157.31;5144942;27;46578;-85
2022/03/08 02:14:11;;;;;;;;;36.75;34.50;;;;;3.20;51.01;101176.00;5144785;27;45168;-85
2022/03/08 02:16:37;;;;;;;;;40.00;35.75;;;;;3.18;51.19;101175.91;5123579;27;45463;-85
2022/03/08 02:19:03;;;;;;;;;40.75;36.75;;;;;2.99;51.07;101145.13;5145324;27;45096;-85
2022/03/08 02:21:33;;;;;;;;;40.00;37.00;;;;;2.91;51.12;101133.31;5136919;27;45151;-85
2022/03/08 02:23:58;;;;;;;;;25.75;21.50;;;;;2.92;50.89;101131.63;5151479;27;45410;-85
2022/03/08 02:26:24;;;;;;;;;38.00;36.00;;;;;2.97;51.37;101135.44;5136186;27;45370;-85
2022/03/08 02:28:51;;;;;;;;;41.25;35.50;;;;;3.13;51.32;101169.50;5151818;27;45511;-85
2022/03/08 02:31:17;;;;;;;;;33.25;28.25;;;;;3.12;50.62;101172.00;5148891;27;45635;-85
2022/03/08 02:33:43;;;;;;;;;34.25;32.25;;;;;3.08;51.23;101170.84;5142108;27;45126;-84
2022/03/08 02:36:08;;;;;;;;;36.75;35.25;;;;;2.87;51.24;101131.28;5148645;27;44988;-85
2022/03/08 02:38:34;;;;;;;;;35.00;33.50;;;;;2.83;51.46;101130.16;5143728;27;45227;-85
2022/03/08 02:40:59;;;;;;;;;40.00;32.50;;;;;2.89;51.53;101136.59;5144929;27;45137;-85
2022/03/08 02:43:24;;;;;;;;;38.50;33.00;;;;;2.81;51.64;101123.09;5114043;27;45155;-84
2022/03/08 02:45:50;;;;;;;;;33.00;31.67;;;;;2.90;51.70;101148.78;5146247;27;45225;-85
2022/03/08 02:48:15;;;;;;;;;37.50;33.75;;;;;2.81;51.61;101134.38;5151418;27;44970;-85
2022/03/08 02:50:41;;;;;;;;;39.00;37.00;;;;;2.58;51.53;101093.78;5135505;27;45332;-84
2022/03/08 02:53:06;;;;;;;;;40.25;34.75;;;;;2.28;51.80;101029.34;5133199;27;45093;-84
2022/03/08 02:55:34;;;;;;;;;34.25;32.50;;;;;2.72;51.74;101123.31;5118052;27;45167;-85
2022/03/08 02:58:00;;;;;;;;;38.00;33.75;;;;;2.79;52.06;101125.53;5133936;27;45109;-85
2022/03/08 03:00:28;;;;;;;;;39.25;33.75;;;;;2.59;52.46;101098.16;5143477;27;45634;-85
2022/03/08 03:02:54;;;;;;;;;35.50;33.25;;;;;2.81;51.98;101149.94;5137834;27;44940;-85
2022/03/08 03:05:19;;;;;;;;;39.25;35.25;;;;;2.77;52.56;101136.63;5140840;27;45027;-85
2022/03/08 03:07:44;;;;;;;;;43.00;36.50;;;;;2.55;52.48;101093.53;5137567;27;45149;-85
2022/03/08 03:10:14;;;;;;;;;42.33;38.00;;;;;2.66;52.18;101116.75;5144451;27;45382;-84
2022/03/08 03:12:39;;;;;;;;;38.75;35.50;;;;;2.65;52.07;101110.69;5117926;27;45319;-85
2022/03/08 03:15:09;;;;;;;;;36.00;33.00;;;;;2.68;52.50;101117.78;5114684;27;45440;-84
2022/03/08 03:17:34;;;;;;;;;37.00;31.75;;;;;2.73;52.38;101126.81;5141269;27;45068;-85
2022/03/08 03:19:59;;;;;;;;;36.00;32.75;;;;;2.69;52.33;101117.91;5141246;27;45602;-85
2022/03/08 03:22:25;;;;;;;;;36.00;35.25;;;;;2.69;52.69;101114.41;5135703;27;44994;-84
2022/03/08 03:24:50;;;;;;;;;40.50;36.25;;;;;2.54;52.51;101094.34;5133674;27;45186;-85
2022/03/08 03:27:16;;;;;;;;;33.75;31.00;;;;;2.58;52.76;101105.84;5152187;27;44978;-84
2022/03/08 03:29:41;;;;;;;;;36.33;31.00;;;;;2.67;52.79;101131.56;5131519;27;47905;-84
2022/03/08 03:32:07;;;;;;;;;40.50;35.75;;;;;2.55;52.68;101108.22;5157038;27;44968;-84
2022/03/08 03:34:32;;;;;;;;;48.25;39.50;;;;;2.13;52.39;101041.19;5133834;27;45119;-85
2022/03/08 03:36:58;;;;;;;;;35.00;30.00;;;;;2.62;52.62;101117.38;5139679;27;45122;-84
2022/03/08 03:39:23;;;;;;;;;35.75;29.50;;;;;2.46;53.10;101091.97;5121152;27;46395;-85
2022/03/08 03:41:49;;;;;;;;;39.00;32.75;;;;;2.61;52.91;101118.13;5155839;27;45171;-85
2022/03/08 03:44:14;;;;;;;;;38.50;34.75;;;;;2.59;52.98;101110.25;5119441;27;45118;-85
2022/03/08 03:46:39;;;;;;;;;38.00;33.00;;;;;2.55;52.85;101106.53;5155016;27;45101;-85
2022/03/08 03:49:05;;;;;;;;;40.50;35.50;;;;;2.58;53.04;101108.44;5145876;27;45155;-84
2022/03/08 03:51:30;;;;;;;;;42.33;36.33;;;;;2.58;53.27;101101.56;5141865;27;44897;-84
2022/03/08 03:53:55;;;;;;;;;34.67;29.67;;;;;2.55;53.16;101106.53;5135834;27;44959;-84
2022/03/08 03:56:21;;;;;;;;;47.75;40.00;;;;;2.47;53.21;101088.63;5131957;27;44986;-85
2022/03/08 03:58:46;;;;;;;;;38.25;35.50;;;;;2.54;53.37;101104.72;5143183;27;45955;-85
2022/03/08 04:01:11;;;;;;;;;42.75;33.50;;;;;2.44;53.24;101093.56;5138560;27;45099;-84
2022/03/08 04:03:37;;;;;;;;;40.67;37.67;;;;;2.42;53.12;101089.97;5155250;27;45030;-85
2022/03/08 04:06:02;;;;;;;;;39.33;33.00;;;;;2.50;53.16;101105.28;5139952;27;45105;-84
2022/03/08 04:08:28;;;;;;;;;40.50;36.00;;;;;2.36;53.08;101080.03;5138930;27;45944;-84
2022/03/08 04:10:53;;;;;;;;;40.75;37.00;;;;;2.46;53.34;101100.66;5140680;27;44972;-85
2022/03/08 04:13:19;;;;;;;;;40.00;37.00;;;;;2.26;53.28;101067.19;5120610;27;45122;-85
2022/03/08 04:15:45;;;;;;;;;39.75;36.50;;;;;2.53;53.45;101109.81;5146847;27;45020;-85
2022/03/08 04:18:12;;;;;;;;;38.00;36.25;;;;;2.26;53.62;101070.69;5139578;27;45353;-84
2022/03/08 04:20:38;;;;;;;;;40.25;35.00;;;;;2.33;53.45;101077.25;5147171;27;45269;-85
2022/03/08 04:23:03;;;;;;;;;38.25;33.25;;;;;2.44;53.45;101099.66;5148256;27;45239;-85
2022/03/08 04:25:29;;;;;;;;;37.00;34.25;;;;;2.44;53.51;101096.16;5145872;27;45144;-85
2022/03/08 04:27:54;;;;;;;;;40.50;36.00;;;;;2.40;53.38;101083.75;5121969;27;47336;-85
2022/03/08 04:30:20;;;;;;;;;40.00;36.50;;;;;2.33;53.54;101080.72;5153650;27;45121;-85
2022/03/08 04:32:45;;;;;;;;;34.50;32.75;;;;;2.00;53.50;101014.34;5145110;27;44939;-84
2022/03/08 04:35:11;;;;;;;;;39.75;38.50;;;;;2.32;53.40;101076.34;5146439;27;45087;-85
2022/03/08 04:37:37;;;;;;;;;37.00;32.75;;;;;2.49;53.68;101111.28;5121769;27;47062;-85
2022/03/08 04:40:06;;;;;;;;;42.75;38.00;;;;;2.49;53.48;101108.69;5152722;27;44935;-85
2022/03/08 04:42:32;;;;;;;;;37.25;34.75;;;;;2.38;53.64;101083.66;5136885;27;44931;-85
2022/03/08 04:44:57;;;;;;;;;38.25;35.50;;;;;2.41;53.64;101094.25;5154386;27;45244;-85
2022/03/08 04:47:23;;;;;;;;;40.33;32.00;;;;;2.35;53.90;101078.25;5136393;27;46131;-84
2022/03/08 04:49:48;;;;;;;;;42.25;38.25;;;;;2.20;54.04;101056.38;5135901;27;45151;-85
2022/03/08 04:52:13;;;;;;;;;38.00;38.00;;;;;2.09;53.49;101036.56;5153391;27;44889;-85
2022/03/08 04:54:39;;;;;;;;;34.33;30.33;;;;;2.32;54.04;101080.63;5154132;27;44888;-85
2022/03/08 04:57:04;;;;;;;;;43.33;40.00;;;;;2.16;54.04;101049.16;5134540;27;45835;-85
2022/03/08 04:59:30;;;;;;;;;35.25;30.50;;;;;2.41;53.90;101089.06;5141374;27;44998;-85
2022/03/08 05:01:55;;;;;;;;;36.00;32.00;;;;;2.11;53.94;101041.06;5135633;27;45104;-84
2022/03/08 05:04:21;;;;;;;;;38.00;32.67;;;;;2.13;53.79;101048.97;5121969;27;44928;-84
2022/03/08 05:06:47;;;;;;;;;34.75;34.00;;;;;2.15;53.96;101047.38;5116072;27;47606;-84
2022/03/08 05:09:12;;;;;;;;;40.75;35.75;;;;;2.03;53.54;101031.84;5115425;27;45138;-84
2022/03/08 05:11:38;;;;;;;;;39.25;33.00;;;;;2.31;53.57;101081.41;5135681;27;45132;-85
2022/03/08 05:14:03;;;;;;;;;37.50;35.50;;;;;2.31;53.82;101082.28;5140470;27;45102;-84
2022/03/08 05:16:28;;;;;;;;;40.33;35.00;;;;;2.31;54.09;101081.41;5146027;27;46097;-84
2022/03/08 05:18:54;;;;;;;;;46.00;40.75;;;;;1.72;53.84;100982.03;5142655;27;45108;-84
2022/03/08 05:21:19;;;;;;;;;38.75;33.00;;;;;2.36;53.94;101099.88;5144864;27;45234;-84
2022/03/08 05:23:45;;;;;;;;;36.50;32.00;;;;;2.17;54.05;101062.28;5146029;27;45098;-84
2022/03/08 05:26:10;;;;;;;;;43.50;38.50;;;;;2.32;54.33;101091.00;5149062;27;45908;-84
2022/03/08 05:28:36;;;;;;;;;40.75;35.50;;;;;2.22;54.12;101085.94;5144066;27;45161;-85
2022/03/08 05:31:01;;;;;;;;;37.25;33.25;;;;;2.25;54.18;101080.97;5120375;27;45127;-84
2022/03/08 05:33:27;;;;;;;;;45.50;33.75;;;;;2.28;54.26;101086.38;5143383;27;45100;-84
2022/03/08 05:35:52;;;;;;;;;37.33;33.00;;;;;2.21;54.00;101077.22;5138918;27;45550;-84
2022/03/08 05:38:18;;;;;;;;;45.67;38.00;;;;;2.18;54.24;101073.53;5134844;27;45041;-85
2022/03/08 05:40:44;;;;;;;;;35.75;30.75;;;;;2.01;54.41;101043.78;5115783;27;45157;-85
2022/03/08 05:43:10;;;;;;;;;36.50;30.25;;;;;2.25;54.55;101089.63;5142749;27;45110;-84
2022/03/08 05:45:35;;;;;;;;;41.75;34.50;;;;;2.16;54.16;101078.59;5138980;27;45715;-85
2022/03/08 05:48:01;;;;;;;;;35.00;32.67;;;;;2.04;54.29;101057.88;5150153;27;45297;-84
2022/03/08 05:50:26;;;;;;;;;35.25;33.25;;;;;2.20;54.54;101090.09;5141852;27;45132;-85
2022/03/08 05:52:51;;;;;;;;;37.25;34.25;;;;;2.12;54.60;101074.00;5146535;27;45170;-84
2022/03/08 05:55:17;;;;;;;;;33.50;29.50;;;;;2.11;54.27;101066.97;5140330;27;45107;-84
2022/03/08 05:57:42;;;;;;;;;45.33;38.33;;;;;1.88;54.27;101035.91;5133200;27;45066;-84
2022/03/08 06:00:08;;;;;;;;;37.00;33.33;;;;;2.19;54.44;101093.47;5125319;27;45204;-85
2022/03/08 06:02:34;;;;;;;;;28.00;20.50;;;;;2.20;54.59;101097.88;5153088;27;45125;-84
2022/03/08 06:04:59;;;;;;;;;41.50;35.50;;;;;2.04;54.47;101076.00;5137521;27;45522;-84
2022/03/08 06:07:25;;;;;;;;;40.00;34.25;;;;;2.11;54.49;101092.00;5149922;27;45296;-84
2022/03/08 06:09:50;;;;;;;;;39.75;37.75;;;;;1.64;54.57;101007.38;5146996;27;45082;-84
2022/03/08 06:12:15;;;;;;;;;40.50;37.00;;;;;1.98;54.71;101067.78;5152746;27;45127;-87
2022/03/08 06:14:41;;;;;;;;;42.50;38.00;;;;;1.93;55.01;101057.88;5144261;27;45684;-81
2022/03/08 06:17:07;;;;;;;;;38.25;36.50;;;;;2.19;54.49;101106.44;5138592;27;44999;-84
2022/03/08 06:19:33;;;;;;;;;42.25;40.75;;;;;1.83;54.77;101050.22;5132143;27;45019;-84
2022/03/08 06:21:59;;;;;;;;;35.75;29.50;;;;;2.18;54.82;101102.97;5149339;27;45108;-84
2022/03/08 06:24:25;;;;;;;;;45.75;38.25;;;;;2.09;54.84;101097.09;5149955;27;45783;-84
2022/03/08 06:26:50;;;;;;;;;40.00;36.67;;;;;1.99;54.92;101074.78;5154252;27;44870;-85
2022/03/08 06:29:18;;;;;;;;;45.50;40.50;;;;;2.09;54.98;101094.50;5128236;27;44973;-85
2022/03/08 06:31:43;;;;;;;;;39.25;36.25;;;;;2.02;54.95;101077.59;5138487;27;45397;-85
2022/03/08 06:34:09;;;;;;;;;39.50;35.00;;;;;2.10;54.90;101088.53;5149279;27;45957;-85
2022/03/08 06:36:35;;;;;;;;;37.00;32.00;;;;;2.02;54.78;101075.00;5134323;27;44988;-85
2022/03/08 06:39:01;;;;;;;;;39.75;38.75;;;;;2.18;54.99;101102.97;5138014;27;45278;-84
2022/03/08 06:41:27;;;;;;;;;44.00;40.00;;;;;2.22;54.69;101109.28;5112044;27;46031;-85
2022/03/08 06:43:52;;;;;;;;;40.75;35.50;;;;;1.94;54.86;101057.97;5114898;27;46972;-85
2022/03/08 06:46:18;;;;;;;;;44.25;37.75;;;;;2.01;54.87;101065.41;5153658;27;45153;-85
2022/03/08 06:48:43;;;;;;;;;48.50;39.00;;;;;2.21;54.97;101090.19;5150775;27;45290;-85
2022/03/08 06:51:08;;;;;;;;;46.33;40.33;;;;;1.99;54.91;101055.72;5115035;27;45519;-84
2022/03/08 06:53:34;;;;;;;;;43.33;37.33;;;;;2.20;55.06;101093.59;5118740;27;46518;-85
2022/03/08 06:55:59;;;;;;;;;38.75;37.25;;;;;2.15;55.28;101081.97;5113790;27;45520;-85
2022/03/08 06:58:24;;;;;;;;;32.75;30.00;;;;;2.30;54.97;101090.88;5120636;27;45321;-85
2022/03/08 07:00:50;;;;;;;;;52.25;39.25;;;;;2.27;54.86;101087.19;5137027;27;44867;-85
2022/03/08 07:03:15;;;;;;;;;41.50;37.50;;;;;1.89;55.26;101011.78;5149196;27;45159;-84
2022/03/08 07:05:41;;;;;;;;;39.00;36.00;;;;;2.36;55.17;101089.50;5132353;27;44983;-84
2022/03/08 07:08:06;;;;;;;;;44.00;39.75;;;;;2.26;55.15;101073.28;5132241;27;45076;-84
2022/03/08 07:10:32;;;;;;;;;44.25;40.75;;;;;2.53;55.07;101109.81;5133547;27;44994;-84
2022/03/08 07:12:57;;;;;;;;;42.00;39.25;;;;;2.58;55.21;101113.63;5132500;27;45600;-85
2022/03/08 07:15:23;;;;;;;;;46.00;41.00;;;;;2.62;55.33;101112.19;5113874;27;46276;-84
2022/03/08 07:17:49;;;;;;;;;50.00;40.50;;;;;2.64;54.92;101106.28;5132584;27;44921;-85
2022/03/08 07:20:14;;;;;;;;;40.00;37.50;;;;;2.71;55.16;101107.63;5132143;27;45170;-85
2022/03/08 07:22:40;;;;;;;;;44.75;40.75;;;;;2.60;54.84;101096.47;5113706;27;46981;-86
2022/03/08 07:25:08;;;;;;;;;40.25;36.75;;;;;2.64;55.27;101082.94;5132697;27;45070;-85
2022/03/08 07:27:33;;;;;;;;;39.75;36.25;;;;;2.51;55.27;101055.22;5132399;27;45212;-85
2022/03/08 07:29:58;;;;;;;;;52.50;41.25;;;;;2.74;54.97;101074.09;5134857;27;45058;-85
2022/03/08 07:32:24;;;;;;;;;34.67;31.00;;;;;2.88;54.77;101095.84;5148039;27;45799;-86
2022/03/08 07:34:49;;;;;;;;;54.75;45.00;;;;;3.01;54.91;101117.59;5138801;27;45455;-85
2022/03/08 07:37:14;;;;;;;;;43.33;39.33;;;;;3.00;54.77;101110.59;5115632;27;45815;-86
2022/03/08 07:39:40;;;;;;;;;47.67;40.33;;;;;2.90;54.78;101083.88;5110717;27;45446;-85
2022/03/08 07:42:05;;;;;;;;;45.00;40.50;;;;;3.24;54.65;101139.06;5124152;27;45551;-86
2022/03/08 07:44:31;;;;;;;;;51.25;41.25;;;;;3.03;54.30;101092.63;5125838;27;45435;-87
2022/03/08 07:46:56;;;;;;;;;47.50;42.00;;;;;3.32;54.36;101140.53;5131725;27;45334;-87
2022/03/08 07:49:22;;;;;;;;;48.50;40.50;;;;;3.32;54.20;101117.13;5130995;27;45006;-86
2022/03/08 07:51:49;;;;;;;;;48.75;43.25;;;;;3.04;54.29;101077.94;5131945;27;45296;-86
2022/03/08 07:54:15;;;;;;;;;42.25;39.75;;;;;2.92;53.64;101026.09;5127482;27;45353;-86
2022/03/08 07:56:40;;;;;;;;;47.00;35.25;;;;;3.07;53.70;101052.22;5135442;27;45486;-85
2022/03/08 07:59:06;;;;;;;;;44.33;37.00;;;;;3.50;53.90;101122.72;5139746;27;45830;-87
2022/03/08 08:01:31;;;;;;;;;44.00;41.67;;;;;3.67;53.68;101134.25;5135869;27;46503;-87
2022/03/08 08:03:57;;;;;;;;;44.75;40.25;;;;;3.45;53.50;101091.22;5117741;27;45387;-87
2022/03/08 08:06:22;;;;;;;;;51.50;41.50;;;;;3.47;53.40;101087.00;5136486;27;45207;-87
2022/03/08 08:08:48;;;;;;;;;54.33;42.33;;;;;3.74;53.21;101121.75;5140303;27;45262;-87
2022/03/08 08:11:13;;;;;;;;;41.25;39.75;;;;;3.87;53.06;101152.09;5137784;27;45506;-87
2022/03/08 08:13:39;;;;;;;;;49.50;42.75;;;;;3.93;53.07;101139.50;5137364;27;45612;-87
2022/03/08 08:16:04;;;;;;;;;47.33;41.00;;;;;3.69;52.99;101089.34;5153965;27;44990;-87
2022/03/08 08:18:29;;;;;;;;;51.00;40.00;;;;;3.90;52.75;101120.22;5156487;27;45019;-87
2022/03/08 08:20:55;;;;;;;;;51.00;43.00;;;;;4.05;52.88;101137.75;5156325;27;45505;-87
2022/03/08 08:23:20;;;;;;;;;45.33;37.67;;;;;3.22;52.67;100984.84;5155867;27;45294;-87
2022/03/08 08:25:46;;;;;;;;;53.00;43.50;;;;;4.10;52.56;101133.75;5156384;27;45042;-87
2022/03/08 08:28:11;;;;;;;;;46.75;41.00;;;;;4.17;52.59;101135.03;5156018;27;45065;-87
2022/03/08 08:30:37;;;;;;;;;49.25;41.75;;;;;4.19;52.58;101123.06;5156013;27;45453;-87
2022/03/08 08:33:03;;;;;;;;;49.25;44.00;;;;;4.31;52.63;101143.75;5137363;27;45195;-87
2022/03/08 08:35:29;;;;;;;;;48.75;40.75;;;;;4.23;52.64;101119.81;5123704;27;45457;-86
2022/03/08 08:37:54;;;;;;;;;60.25;48.00;;;;;4.17;52.74;101097.72;5137059;27;45344;-87
2022/03/08 08:40:19;;;;;;;;;53.25;43.00;;;;;4.19;52.50;101078.84;5137365;27;45443;-87
2022/03/08 08:42:45;;;;;;;;;49.33;41.00;;;;;4.27;52.45;101089.72;5137162;27;45427;-88
2022/03/08 08:45:11;;;;;;;;;50.33;43.00;;;;;4.35;52.25;101083.31;5119296;27;45398;-89
2022/03/08 08:47:36;;;;;;;;;45.25;42.75;;;;;4.64;52.74;101135.56;5137721;27;45494;-89
2022/03/08 08:50:03;;;;;;;;;54.33;44.67;;;;;4.45;52.19;101083.13;5137610;27;46175;-88
2022/03/08 08:52:28;;;;;;;;;44.50;40.25;;;;;4.70;51.93;101128.94;5118833;27;45659;-90
2022/03/08 08:54:54;;;;;;;;;52.75;42.25;;;;;4.85;52.12;101143.81;5105668;27;45267;-89
2022/03/08 08:57:19;;;;;;;;;49.25;42.00;;;;;4.52;52.06;101081.78;5121120;27;45529;-90
2022/03/08 08:59:45;;;;;;;;;42.00;39.00;;;;;4.77;52.15;101100.75;5127399;27;45514;-90
2022/03/08 09:02:10;;;;;;;;;55.00;46.00;;;;;4.64;52.03;101065.25;5111845;27;45375;-90
2022/03/08 09:04:36;;;;;;;;;53.33;43.67;;;;;4.62;51.88;101056.44;5125003;27;45080;-89
2022/03/08 09:07:01;;;;;;;;;48.50;42.00;;;;;5.07;52.00;101119.13;5128354;27;45444;-88
2022/03/08 09:09:26;;;;;;;;;49.75;42.00;;;;;4.95;51.75;101094.94;5116308;27;47497;-89
2022/03/08 09:11:52;;;;;;;;;51.67;43.67;;;;;5.25;51.72;101141.13;5132263;27;45258;-90
2022/03/08 09:14:17;;;;;;;;;46.25;41.00;;;;;5.31;51.47;101130.16;5121936;27;45226;-90
2022/03/08 09:16:43;;;;;;;;;55.75;41.75;;;;;4.78;51.47;101019.28;5105373;27;45651;-90
2022/03/08 09:19:10;;;;;;;;;46.25;39.75;;;;;4.96;51.25;101042.91;5131302;27;45186;-90
2022/03/08 09:21:36;;;;;;;;;54.00;45.75;;;;;4.97;51.13;101029.09;5099057;27;45494;-89
2022/03/08 09:24:01;;;;;;;;;54.50;44.75;;;;;5.57;51.41;101132.69;5116937;27;45581;-89
2022/03/08 09:26:27;;;;;;;;;51.00;44.50;;;;;4.99;51.32;101004.06;5116466;27;45464;-87
2022/03/08 09:28:52;;;;;;;;;55.00;43.33;;;;;5.46;51.13;101078.06;5115852;27;46509;-89
2022/03/08 09:31:17;;;;;;;;;59.75;45.75;;;;;5.66;50.93;101098.41;5116138;27;45260;-89
2022/03/08 09:33:44;;;;;;;;;46.50;40.25;;;;;5.32;50.85;101030.31;5119557;27;45353;-88
2022/03/08 09:36:10;;;;;;;;;55.75;44.25;;;;;5.55;50.60;101058.66;5133002;27;45231;-90
2022/03/08 09:38:37;;;;;;;;;53.25;44.00;;;;;5.63;50.75;101054.81;5137906;27;45547;-90
2022/03/08 09:41:02;;;;;;;;;57.00;45.50;;;;;5.74;50.58;101067.59;5136606;27;45715;-88
2022/03/08 09:43:29;;;;;;;;;59.00;45.75;;;;;5.79;50.59;101050.50;5117989;27;45779;-90
2022/03/08 09:45:55;;;;;;;;;57.25;45.00;;;;;6.05;50.71;101096.38;5118825;27;45801;-89
2022/03/08 09:48:20;;;;;;;;;54.25;43.00;;;;;5.58;50.29;100990.19;5136925;27;46506;-89
2022/03/08 09:50:46;;;;;;;;;65.25;48.50;;;;;5.75;50.85;101012.91;5118646;27;45357;-90
2022/03/08 09:53:12;;;;;;;;;59.25;47.50;;;;;5.63;50.44;100976.59;5118655;27;45528;-90
2022/03/08 09:55:38;;;;;;;;;58.25;45.75;;;;;6.12;50.06;101051.59;5121243;27;45566;-90
2022/03/08 09:58:04;;;;;;;;;53.75;44.50;;;;;6.24;50.35;101056.59;5127680;27;45275;-89
2022/03/08 10:00:32;;;;;;;;;59.00;46.25;;;;;6.65;50.38;101124.19;5115411;27;45150;-88
2022/03/08 10:02:59;;;;;;;;;62.25;48.50;;;;;6.15;50.02;101023.94;5115681;27;45126;-89
2022/03/08 10:05:29;;;;;;;;;53.75;43.25;;;;;6.79;50.27;101109.31;5132150;27;45258;-90
2022/03/08 10:08:07;;;;;;;;;58.50;47.50;;;;;6.85;50.08;101117.50;5129514;27;46157;-90
2022/03/08 10:10:32;;;;;;;;;60.25;47.25;;;;;6.60;49.81;101058.69;5133677;27;44986;-90
2022/03/08 10:12:58;;;;;;;;;55.25;41.25;;;;;6.64;49.99;101042.34;5131817;27;45046;-88
2022/03/08 10:15:24;;;;;;;;;53.00;45.00;;;;;6.89;49.84;101067.19;5131143;27;45035;-90
2022/03/08 10:17:50;;;;;;;;;59.50;45.75;;;;;6.60;50.19;100989.84;5116618;27;46472;-90
2022/03/08 10:20:30;;;;;;;;;55.25;44.00;;;;;7.23;49.84;101080.34;5115086;27;45463;-88
2022/03/08 10:22:56;;;;;;;;;59.75;48.00;;;;;7.13;49.50;101038.88;5114785;27;45418;-88
2022/03/08 10:25:25;;;;;;;;;58.00;45.75;;;;;7.36;49.09;101067.13;5127979;27;45554;-89
2022/03/08 10:27:50;;;;;;;;;59.25;45.25;;;;;7.53;49.32;101077.56;5132824;27;45878;-90
2022/03/08 10:30:15;;;;;;;;;62.00;51.00;;;;;7.60;49.10;101082.31;5117179;27;45469;-88
2022/03/08 10:32:40;;;;;;;;;56.33;45.33;;;;;7.55;48.66;101049.78;5114850;27;45402;-89
2022/03/08 10:35:09;;;;;;;;;57.67;47.33;;;;;7.45;48.71;101012.69;5115375;27;45291;-86
2022/03/08 10:37:37;;;;;;;;;55.25;46.25;;;;;7.57;48.20;101015.03;5115022;27;46096;-89
2022/03/08 10:40:09;;;;;;;;;60.00;48.25;;;;;7.95;48.57;101069.28;5114003;27;45357;-88
2022/03/08 10:42:38;;;;;;;;;61.75;48.50;;;;;7.88;48.36;101053.19;5114699;27;45251;-90
2022/03/08 10:45:11;;;;;;;;;61.00;49.25;;;;;8.09;48.38;101064.75;5114401;27;45379;-89
2022/03/08 10:47:50;;;;;;;;;88.00;70.50;;;;;8.16;47.88;101061.59;5114536;27;46830;-89
2022/03/08 10:50:18;;;;;;;;;59.75;49.25;;;;;7.99;48.28;101029.38;5115056;27;45424;-89
2022/03/08 10:52:46;;;;;;;;;57.00;46.25;;;;;8.04;48.19;101018.25;5114847;27;45329;-89
2022/03/08 10:55:13;;;;;;;;;56.00;44.50;;;;;8.36;48.47;101057.38;5096440;27;45410;-90
2022/03/08 10:57:50;;;;;;;;;61.00;48.00;;;;;8.47;47.99;101057.88;5114356;27;45613;-89
2022/03/08 11:00:20;;;;;;;;;60.25;46.75;;;;;8.57;48.04;101054.91;5114666;27;45515;-89
2022/03/08 11:02:46;;;;;;;;;57.00;45.00;;;;;8.55;47.95;101032.97;5096285;27;45398;-89
2022/03/08 11:05:13;;;;;;;;;60.00;47.25;;;;;8.49;47.45;100998.63;5115047;27;45642;-89
2022/03/08 11:07:39;;;;;;;;;59.50;47.50;;;;;8.73;47.78;101028.59;5118261;27;46220;-88
2022/03/08 11:10:08;;;;;;;;;58.50;46.25;;;;;8.69;47.69;101007.41;5130614;27;45515;-88